Time;durP1;ratioP1;P1;durP2;ratioP2;P2;SDS_P1;SDS_P2;PMS_P1;PMS_P2;Temp;Humidity;BMP_temperature;BMP_pressure;BME280_temperature;BME280_humidity;BME280_pressure;Samples;Min_cycle;Max_cycle;Signal;HPM_P1;HPM_P2
2021/12/30 00:00:12;;;;;;;;;;;15.10;96.70;;;;;;4991889;28;20379;-89
2021/12/30 00:02:40;;;;;;;;;;;15.10;96.40;;;;;;5000769;28;19921;-89
2021/12/30 00:05:08;;;;;;;;;;;15.10;96.70;;;;;;4985284;28;19940;-89
2021/12/30 00:07:36;;;;;;;;;;;15.10;96.70;;;;;;4990932;28;19928;-88
2021/12/30 00:10:03;;;;;;;;;;;15.20;96.60;;;;;;4959782;28;19917;-89
2021/12/30 00:12:31;;;;;;;;;;;15.20;96.50;;;;;;4995580;28;20375;-88
2021/12/30 00:14:57;;;;;;;;;;;15.20;96.60;;;;;;4996930;28;19918;-89
2021/12/30 00:17:24;;;;;;;;;;;15.30;96.70;;;;;;4981768;28;19921;-89
2021/12/30 00:19:51;;;;;;;;;;;15.30;96.80;;;;;;4985786;28;20035;-89
2021/12/30 00:22:18;;;;;;;;;;;15.30;96.70;;;;;;4986467;28;20429;-89
2021/12/30 00:24:45;;;;;;;;;;;15.30;96.80;;;;;;4984360;28;20021;-89
2021/12/30 00:27:12;;;;;;;;;;;15.30;96.90;;;;;;5010148;28;19910;-89
2021/12/30 00:29:39;;;;;;;;;;;15.30;97.00;;;;;;4987640;28;20109;-89
2021/12/30 00:32:06;;;;;;;;;;;15.40;97.00;;;;;;4986366;28;19939;-89
2021/12/30 00:34:33;;;;;;;;;;;15.40;97.00;;;;;;4992566;28;19928;-89
2021/12/30 00:36:59;;;;;;;;;;;15.40;97.10;;;;;;4989617;28;19914;-89
2021/12/30 00:39:27;;;;;;;;;;;15.40;97.10;;;;;;5003725;28;19920;-89
2021/12/30 00:41:54;;;;;;;;;;;15.40;97.10;;;;;;4983827;28;19917;-89
2021/12/30 00:44:20;;;;;;;;;;;15.50;97.10;;;;;;4985889;28;19914;-89
2021/12/30 00:46:47;;;;;;;;;;;15.40;97.10;;;;;;4986424;28;20487;-88
2021/12/30 00:49:14;;;;;;;;;;;15.50;97.10;;;;;;4984907;28;19925;-89
2021/12/30 00:51:41;;;;;;;;;;;15.50;97.10;;;;;;4983212;28;19913;-89
2021/12/30 00:54:08;;;;;;;;;;;15.50;97.20;;;;;;4965890;28;20264;-89
2021/12/30 00:56:35;;;;;;;;;;;15.50;97.20;;;;;;4969929;28;20278;-89
2021/12/30 00:59:02;;;;;;;;;;;15.50;97.10;;;;;;5000270;28;19913;-88
2021/12/30 01:01:29;;;;;;;;;;;15.50;97.10;;;;;;4977100;28;20303;-89
2021/12/30 01:03:56;;;;;;;;;;;15.60;97.30;;;;;;4991766;28;20454;-89
2021/12/30 01:06:23;;;;;;;;;;;15.50;97.20;;;;;;4990150;28;19913;-88
2021/12/30 01:08:50;;;;;;;;;;;15.60;97.10;;;;;;4986384;28;20026;-88
2021/12/30 01:11:18;;;;;;;;;;;15.60;97.10;;;;;;4990662;28;19917;-89
2021/12/30 01:13:50;;;;;;;;;;;15.60;97.10;;;;;;4972039;28;20042;-89
2021/12/30 01:16:19;;;;;;;;;;;15.60;97.10;;;;;;4992869;28;20277;-88
2021/12/30 01:19:04;;;;;;;;;;;15.60;97.00;;;;;;4965990;28;19921;-88
2021/12/30 01:21:32;;;;;;;;;;;15.60;96.90;;;;;;4981003;28;19910;-89
2021/12/30 01:24:00;;;;;;;;;;;15.60;97.00;;;;;;4981591;28;19920;-89
2021/12/30 01:26:27;;;;;;;;;;;15.60;97.10;;;;;;4962400;28;20396;-89
2021/12/30 01:28:54;;;;;;;;;;;15.60;97.10;;;;;;4981543;28;19921;-89
2021/12/30 01:31:21;;;;;;;;;;;15.70;97.20;;;;;;4982836;28;19944;-89
2021/12/30 01:33:47;;;;;;;;;;;15.60;97.20;;;;;;4969901;28;19914;-89
2021/12/30 01:36:15;;;;;;;;;;;15.60;97.30;;;;;;4978946;28;20290;-89
2021/12/30 01:38:43;;;;;;;;;;;15.60;97.10;;;;;;4975132;28;19928;-89
2021/12/30 01:41:11;;;;;;;;;;;15.60;97.10;;;;;;4991676;28;19925;-89
2021/12/30 01:43:38;;;;;;;;;;;15.60;97.10;;;;;;4971322;28;20294;-89
2021/12/30 01:46:06;;;;;;;;;;;15.60;97.20;;;;;;4989288;28;19914;-89
2021/12/30 01:48:33;;;;;;;;;;;15.60;97.20;;;;;;4979284;28;20371;-89
2021/12/30 01:51:00;;;;;;;;;;;15.60;97.30;;;;;;4982439;28;19925;-89
2021/12/30 01:53:27;;;;;;;;;;;15.60;97.30;;;;;;4994657;28;19914;-89
2021/12/30 01:55:54;;;;;;;;;;;15.60;97.30;;;;;;5001008;28;20480;-89
2021/12/30 01:58:21;;;;;;;;;;;15.60;97.30;;;;;;4980818;28;19920;-87
2021/12/30 02:00:49;;;;;;;;;;;15.60;97.20;;;;;;4994220;28;20015;-90
2021/12/30 02:03:17;;;;;;;;;;;15.60;97.40;;;;;;4965448;28;19924;-90
2021/12/30 02:05:44;;;;;;;;;;;15.60;97.40;;;;;;4981293;28;20117;-90
2021/12/30 02:08:13;;;;;;;;;;;15.70;97.50;;;;;;4987782;28;19914;-91
2021/12/30 02:10:41;;;;;;;;;;;15.70;97.50;;;;;;4972022;28;20148;-90
2021/12/30 02:13:09;;;;;;;;;;;15.70;97.50;;;;;;4993950;28;20206;-90
2021/12/30 02:15:36;;;;;;;;;;;15.70;97.50;;;;;;4975125;28;19914;-90
2021/12/30 02:18:03;;;;;;;;;;;15.70;97.40;;;;;;4991697;28;19910;-91
2021/12/30 02:20:39;;;;;;;;;;;15.70;97.50;;;;;;4984057;28;19917;-90
2021/12/30 02:23:07;;;;;;;;;;;15.70;97.50;;;;;;4986252;28;19918;-90
2021/12/30 02:25:34;;;;;;;;;;;15.70;97.40;;;;;;4966488;28;19918;-91
2021/12/30 02:28:04;;;;;;;;;;;15.80;97.50;;;;;;4992185;28;19924;-90
2021/12/30 02:30:31;;;;;;;;;;;15.70;97.40;;;;;;4998866;28;20398;-90
2021/12/30 02:32:58;;;;;;;;;;;15.80;97.50;;;;;;4985787;28;19925;-90
2021/12/30 02:35:25;;;;;;;;;;;15.80;97.50;;;;;;4969027;28;20357;-90
2021/12/30 02:37:51;;;;;;;;;;;15.70;97.50;;;;;;4982166;28;20325;-92
2021/12/30 02:40:28;;;;;;;;;;;15.80;97.60;;;;;;4993884;28;19914;-89
2021/12/30 02:42:55;;;;;;;;;;;15.80;97.60;;;;;;4979296;28;19920;-89
2021/12/30 02:45:22;;;;;;;;;;;15.80;97.60;;;;;;4988886;28;19922;-91
2021/12/30 02:47:49;;;;;;;;;;;15.80;97.60;;;;;;4981983;28;19913;-90
2021/12/30 02:50:16;;;;;;;;;;;15.80;97.50;;;;;;4960448;28;20248;-91
2021/12/30 02:52:43;;;;;;;;;;;15.80;97.60;;;;;;4986467;28;19939;-91
2021/12/30 02:55:10;;;;;;;;;;;15.90;97.70;;;;;;4991227;28;19913;-90
2021/12/30 02:57:36;;;;;;;;;;;15.80;97.70;;;;;;4999773;28;20394;-90
2021/12/30 03:00:05;;;;;;;;;;;15.90;97.70;;;;;;4989914;28;20269;-91
2021/12/30 03:02:34;;;;;;;;;;;15.90;97.70;;;;;;4979458;28;20021;-88
2021/12/30 03:05:01;;;;;;;;;;;15.90;97.60;;;;;;4986510;28;19914;-91
2021/12/30 03:07:28;;;;;;;;;;;15.90;97.60;;;;;;4981984;28;20103;-91
2021/12/30 03:09:55;;;;;;;;;;;16.00;97.60;;;;;;4989609;28;19927;-90
2021/12/30 03:12:22;;;;;;;;;;;16.00;97.60;;;;;;4980038;28;20391;-90
2021/12/30 03:14:49;;;;;;;;;;;16.00;97.60;;;;;;4995159;28;19920;-89
2021/12/30 03:17:16;;;;;;;;;;;16.00;97.60;;;;;;4984802;28;19933;-89
2021/12/30 03:19:42;;;;;;;;;;;16.00;97.70;;;;;;4984672;28;19917;-90
2021/12/30 03:22:09;;;;;;;;;;;16.00;97.60;;;;;;5003462;28;19918;-90
2021/12/30 03:24:36;;;;;;;;;;;16.00;97.70;;;;;;4980733;28;20107;-89
2021/12/30 03:27:03;;;;;;;;;;;16.10;97.70;;;;;;4979925;28;20258;-91
2021/12/30 03:29:30;;;;;;;;;;;16.10;98.10;;;;;;4987799;28;20488;-91
2021/12/30 03:31:57;;;;;;;;;;;16.10;97.60;;;;;;4984168;28;19919;-89
2021/12/30 03:34:24;;;;;;;;;;;16.10;97.50;;;;;;5004321;28;20121;-91
2021/12/30 03:36:51;;;;;;;;;;;16.10;97.60;;;;;;4983634;28;19920;-91
2021/12/30 03:39:18;;;;;;;;;;;16.10;97.40;;;;;;4963006;28;19929;-89
2021/12/30 03:41:45;;;;;;;;;;;16.20;97.50;;;;;;4979560;28;19913;-90
2021/12/30 03:44:11;;;;;;;;;;;16.20;97.50;;;;;;4977439;28;20271;-90
2021/12/30 03:46:38;;;;;;;;;;;16.20;97.40;;;;;;4973091;28;19914;-89
2021/12/30 03:49:06;;;;;;;;;;;16.20;97.40;;;;;;4982837;28;19914;-90
2021/12/30 03:51:38;;;;;;;;;;;16.30;97.50;;;;;;4986441;28;20026;-89
2021/12/30 03:54:06;;;;;;;;;;;16.30;97.60;;;;;;4985973;28;19928;-90
2021/12/30 03:56:35;;;;;;;;;;;16.30;97.10;;;;;;4971420;28;19917;-90
2021/12/30 03:59:03;;;;;;;;;;;16.30;97.10;;;;;;4984587;28;20282;-91
2021/12/30 04:01:30;;;;;;;;;;;16.30;97.10;;;;;;4969627;28;20099;-92
2021/12/30 04:03:57;;;;;;;;;;;16.40;97.10;;;;;;4991220;28;19924;-91
2021/12/30 04:06:25;;;;;;;;;;;16.40;97.30;;;;;;4975537;28;19932;-89
2021/12/30 04:08:52;;;;;;;;;;;16.40;97.00;;;;;;4985638;28;19924;-89
2021/12/30 04:11:19;;;;;;;;;;;16.40;97.10;;;;;;4979520;28;19945;-89
2021/12/30 04:13:45;;;;;;;;;;;16.40;97.10;;;;;;4982967;28;19920;-90
2021/12/30 04:16:12;;;;;;;;;;;16.40;97.00;;;;;;4982533;28;19921;-89
2021/12/30 04:18:39;;;;;;;;;;;16.40;97.00;;;;;;4987066;28;19924;-90
2021/12/30 04:21:06;;;;;;;;;;;16.40;96.90;;;;;;4978554;28;19927;-92
2021/12/30 04:23:33;;;;;;;;;;;16.50;96.90;;;;;;4987542;28;19914;-88
2021/12/30 04:26:00;;;;;;;;;;;16.50;96.60;;;;;;4987631;28;19924;-90
2021/12/30 04:28:27;;;;;;;;;;;16.40;96.80;;;;;;4978440;28;20046;-90
2021/12/30 04:30:54;;;;;;;;;;;16.40;96.60;;;;;;4991842;28;19928;-89
2021/12/30 04:33:20;;;;;;;;;;;16.40;96.60;;;;;;4983934;28;20473;-89
2021/12/30 04:35:48;;;;;;;;;;;16.40;96.70;;;;;;4985299;28;20401;-90
2021/12/30 04:38:15;;;;;;;;;;;16.50;96.70;;;;;;4991153;28;19922;-90
2021/12/30 04:40:42;;;;;;;;;;;16.50;96.70;;;;;;4988309;28;19914;-90
2021/12/30 04:43:09;;;;;;;;;;;16.50;96.80;;;;;;4976854;28;20397;-90
2021/12/30 04:45:36;;;;;;;;;;;16.50;96.80;;;;;;4986141;28;20116;-90
2021/12/30 04:48:03;;;;;;;;;;;16.50;96.80;;;;;;4980139;28;20382;-89
2021/12/30 04:50:30;;;;;;;;;;;16.50;96.80;;;;;;4986447;28;20894;-90
2021/12/30 04:52:57;;;;;;;;;;;16.50;96.90;;;;;;4994708;28;20400;-89
2021/12/30 04:55:24;;;;;;;;;;;16.50;97.00;;;;;;4980658;28;19920;-89
2021/12/30 04:57:51;;;;;;;;;;;16.50;97.00;;;;;;4997961;28;19913;-89
2021/12/30 05:00:18;;;;;;;;;;;16.50;97.00;;;;;;4988787;28;20268;-92
2021/12/30 05:05:24;;;;;;;;;;;16.50;96.90;;;;;;4993760;28;20575;-89
2021/12/30 05:07:51;;;;;;;;;;;16.50;96.80;;;;;;5005249;28;19913;-89
2021/12/30 05:10:18;;;;;;;;;;;16.50;96.90;;;;;;4975529;28;19918;-90
2021/12/30 05:12:45;;;;;;;;;;;16.50;96.70;;;;;;4994004;28;19924;-90
2021/12/30 05:15:12;;;;;;;;;;;16.50;96.70;;;;;;4977726;28;19913;-89
2021/12/30 05:17:41;;;;;;;;;;;16.50;96.80;;;;;;4982975;28;20309;-89
2021/12/30 05:20:09;;;;;;;;;;;16.50;96.80;;;;;;4995241;28;19923;-89
2021/12/30 05:22:35;;;;;;;;;;;16.50;96.90;;;;;;4981900;28;20007;-91
2021/12/30 05:25:02;;;;;;;;;;;16.50;96.80;;;;;;4989905;28;19914;-90
2021/12/30 05:27:29;;;;;;;;;;;16.50;96.80;;;;;;4979002;28;20414;-89
2021/12/30 05:29:56;;;;;;;;;;;16.50;96.80;;;;;;4990434;28;20413;-90
2021/12/30 05:32:23;;;;;;;;;;;16.50;97.00;;;;;;4971699;28;20565;-89
2021/12/30 05:34:50;;;;;;;;;;;16.50;96.70;;;;;;4988550;28;19930;-90
2021/12/30 05:37:17;;;;;;;;;;;16.50;96.80;;;;;;4955588;28;19921;-89
2021/12/30 05:39:45;;;;;;;;;;;16.50;96.50;;;;;;4972062;28;20201;-89
2021/12/30 05:42:12;;;;;;;;;;;16.50;96.50;;;;;;4988665;28;20283;-89
2021/12/30 05:44:40;;;;;;;;;;;16.50;96.60;;;;;;4970960;28;20267;-89
2021/12/30 05:47:07;;;;;;;;;;;16.50;96.60;;;;;;4973738;28;19920;-89
2021/12/30 05:49:34;;;;;;;;;;;16.50;96.80;;;;;;4967139;28;20544;-89
2021/12/30 05:52:01;;;;;;;;;;;16.50;96.70;;;;;;4987709;28;19939;-90
2021/12/30 05:54:28;;;;;;;;;;;16.50;96.80;;;;;;4955417;28;20015;-89
2021/12/30 05:56:55;;;;;;;;;;;16.50;96.80;;;;;;4976694;28;19913;-89
2021/12/30 05:59:22;;;;;;;;;;;16.60;96.70;;;;;;4957394;28;19914;-88
2021/12/30 06:01:49;;;;;;;;;;;16.50;96.50;;;;;;4981523;28;19923;-89
2021/12/30 06:04:15;;;;;;;;;;;16.60;96.40;;;;;;4967646;28;19917;-88
2021/12/30 06:06:42;;;;;;;;;;;16.60;96.40;;;;;;4976793;28;19920;-89
2021/12/30 06:09:10;;;;;;;;;;;16.60;96.50;;;;;;4980097;28;20006;-89
2021/12/30 06:11:37;;;;;;;;;;;16.60;96.70;;;;;;4974984;28;19922;-89
2021/12/30 06:14:05;;;;;;;;;;;16.60;96.20;;;;;;4960892;28;21050;-89
2021/12/30 06:16:33;;;;;;;;;;;16.60;96.50;;;;;;4952782;28;20043;-89
2021/12/30 06:19:00;;;;;;;;;;;16.60;96.60;;;;;;4996367;28;19910;-89
2021/12/30 06:21:27;;;;;;;;;;;16.60;96.60;;;;;;4992907;28;19914;-90
2021/12/30 06:23:54;;;;;;;;;;;16.60;96.70;;;;;;4963540;28;20307;-88
2021/12/30 06:26:21;;;;;;;;;;;16.60;96.40;;;;;;4965536;28;20369;-90
2021/12/30 06:28:49;;;;;;;;;;;16.60;96.40;;;;;;4969509;28;19944;-90
2021/12/30 06:31:16;;;;;;;;;;;16.60;96.50;;;;;;4990636;28;20451;-89
2021/12/30 06:33:43;;;;;;;;;;;16.60;96.40;;;;;;4966823;28;19925;-89
2021/12/30 06:36:10;;;;;;;;;;;16.60;96.50;;;;;;4947096;28;19918;-88
2021/12/30 06:38:37;;;;;;;;;;;16.60;96.30;;;;;;4977339;28;20023;-89
2021/12/30 06:41:04;;;;;;;;;;;16.60;96.40;;;;;;4942748;28;19925;-89
2021/12/30 06:43:31;;;;;;;;;;;16.60;96.60;;;;;;4962162;28;19928;-89
2021/12/30 06:45:58;;;;;;;;;;;16.60;96.50;;;;;;4961431;28;19913;-89
2021/12/30 06:48:25;;;;;;;;;;;16.60;96.40;;;;;;4946257;28;20509;-89
2021/12/30 06:50:53;;;;;;;;;;;16.60;96.60;;;;;;4965549;28;19918;-89
2021/12/30 06:53:20;;;;;;;;;;;16.60;96.50;;;;;;4946278;28;20142;-89
2021/12/30 06:55:48;;;;;;;;;;;16.60;96.40;;;;;;4951283;28;20390;-88
2021/12/30 06:58:15;;;;;;;;;;;16.60;96.50;;;;;;4952174;28;19920;-88
2021/12/30 07:00:41;;;;;;;;;;;16.60;96.40;;;;;;4940534;28;19918;-89
2021/12/30 07:03:08;;;;;;;;;;;16.60;96.60;;;;;;4972278;28;19914;-88
2021/12/30 07:05:35;;;;;;;;;;;16.60;96.70;;;;;;4974220;28;19914;-89
2021/12/30 07:08:02;;;;;;;;;;;16.60;96.60;;;;;;4966056;28;19921;-88
2021/12/30 07:10:29;;;;;;;;;;;16.60;96.60;;;;;;4951842;28;19914;-89
2021/12/30 07:12:56;;;;;;;;;;;16.60;96.50;;;;;;4963995;28;20553;-90
2021/12/30 07:15:23;;;;;;;;;;;16.60;96.50;;;;;;4953826;28;20123;-89
2021/12/30 07:17:50;;;;;;;;;;;16.60;96.50;;;;;;4973789;28;19920;-89
2021/12/30 07:20:17;;;;;;;;;;;16.60;96.40;;;;;;4938572;28;19924;-89
2021/12/30 07:22:44;;;;;;;;;;;16.60;96.60;;;;;;4955478;28;19920;-88
2021/12/30 07:25:16;;;;;;;;;;;16.60;96.40;;;;;;4948574;28;19917;-90
2021/12/30 07:27:47;;;;;;;;;;;16.60;96.40;;;;;;4949196;28;19922;-88
2021/12/30 07:30:14;;;;;;;;;;;16.60;96.40;;;;;;4949887;28;19918;-89
2021/12/30 07:32:41;;;;;;;;;;;16.60;96.40;;;;;;4960632;28;19921;-88
2021/12/30 07:35:08;;;;;;;;;;;16.60;96.60;;;;;;4948348;28;19922;-91
2021/12/30 07:37:35;;;;;;;;;;;16.60;96.60;;;;;;4969055;28;20401;-88
2021/12/30 07:40:03;;;;;;;;;;;16.60;96.30;;;;;;4996765;28;19914;-88
2021/12/30 07:42:30;;;;;;;;;;;16.60;96.80;;;;;;4979775;28;20190;-89
2021/12/30 07:44:57;;;;;;;;;;;16.60;96.80;;;;;;4985730;28;19922;-88
2021/12/30 07:47:23;;;;;;;;;;;16.60;96.80;;;;;;4973050;28;19921;-89
2021/12/30 07:49:50;;;;;;;;;;;16.60;96.70;;;;;;4992735;28;19928;-88
2021/12/30 07:52:17;;;;;;;;;;;16.60;97.10;;;;;;4979276;28;20393;-88
2021/12/30 07:54:44;;;;;;;;;;;16.60;96.70;;;;;;4994729;28;19917;-88
2021/12/30 07:57:12;;;;;;;;;;;16.60;96.60;;;;;;4989014;28;19920;-89
2021/12/30 07:59:39;;;;;;;;;;;16.60;96.60;;;;;;4979966;28;21507;-88
2021/12/30 08:02:06;;;;;;;;;;;16.60;96.50;;;;;;4990744;28;19917;-89
2021/12/30 08:04:32;;;;;;;;;;;16.70;96.80;;;;;;4986792;28;19918;-89
2021/12/30 08:06:59;;;;;;;;;;;16.60;96.70;;;;;;4983755;28;19922;-89
2021/12/30 08:09:26;;;;;;;;;;;16.70;96.80;;;;;;4988511;28;19917;-89
2021/12/30 08:11:53;;;;;;;;;;;16.70;96.70;;;;;;4995088;28;19913;-89
2021/12/30 08:14:20;;;;;;;;;;;16.70;96.60;;;;;;4976865;28;19923;-88
2021/12/30 08:16:46;;;;;;;;;;;16.70;96.60;;;;;;4992794;28;19927;-88
2021/12/30 08:19:13;;;;;;;;;;;16.70;96.70;;;;;;4984681;28;19919;-88
2021/12/30 08:21:42;;;;;;;;;;;16.70;96.70;;;;;;4976204;28;19925;-89
2021/12/30 08:24:09;;;;;;;;;;;16.70;96.70;;;;;;4988190;28;19917;-87
2021/12/30 08:26:36;;;;;;;;;;;16.70;96.50;;;;;;4979332;28;20027;-88
2021/12/30 08:29:03;;;;;;;;;;;16.70;96.60;;;;;;4978077;28;19921;-89
2021/12/30 08:31:30;;;;;;;;;;;16.70;96.70;;;;;;4954618;28;22237;-89
2021/12/30 08:33:57;;;;;;;;;;;16.60;96.40;;;;;;4988983;28;19925;-89
2021/12/30 08:36:24;;;;;;;;;;;16.70;96.40;;;;;;4963074;28;20118;-89
2021/12/30 08:38:50;;;;;;;;;;;16.70;96.10;;;;;;4982127;28;19917;-89
2021/12/30 08:41:17;;;;;;;;;;;16.70;96.40;;;;;;4971308;28;20329;-88
2021/12/30 08:43:44;;;;;;;;;;;16.70;96.10;;;;;;4982578;28;20297;-89
2021/12/30 08:46:11;;;;;;;;;;;16.80;96.50;;;;;;4974110;28;19924;-89
2021/12/30 08:48:38;;;;;;;;;;;16.80;96.40;;;;;;4990310;28;20543;-91
2021/12/30 08:51:05;;;;;;;;;;;16.80;96.40;;;;;;4975358;28;19921;-88
2021/12/30 08:53:32;;;;;;;;;;;16.80;96.30;;;;;;4959954;28;20317;-89
2021/12/30 08:55:59;;;;;;;;;;;16.80;96.20;;;;;;4988198;28;20465;-89
2021/12/30 08:58:26;;;;;;;;;;;16.80;96.20;;;;;;4997516;28;19943;-88
2021/12/30 09:00:53;;;;;;;;;;;16.80;96.40;;;;;;4977688;28;19928;-86
2021/12/30 09:03:20;;;;;;;;;;;16.80;96.30;;;;;;4989030;28;20100;-86
2021/12/30 09:05:46;;;;;;;;;;;16.80;96.30;;;;;;4982775;28;19928;-86
2021/12/30 09:08:14;;;;;;;;;;;16.90;96.30;;;;;;4962679;28;20047;-86
2021/12/30 09:10:45;;;;;;;;;;;16.90;96.20;;;;;;4986715;28;19913;-86
2021/12/30 09:13:14;;;;;;;;;;;16.90;96.20;;;;;;4985509;28;19921;-86
2021/12/30 09:15:41;;;;;;;;;;;16.90;96.30;;;;;;4981114;28;19922;-86
2021/12/30 09:18:08;;;;;;;;;;;16.90;96.20;;;;;;4981809;28;19920;-86
2021/12/30 09:20:35;;;;;;;;;;;16.90;96.50;;;;;;4986603;28;20007;-86
2021/12/30 09:23:05;;;;;;;;;;;17.00;96.20;;;;;;4987403;28;19945;-86
2021/12/30 09:25:32;;;;;;;;;;;17.00;96.30;;;;;;4987703;28;20114;-86
2021/12/30 09:27:58;;;;;;;;;;;17.00;96.20;;;;;;4997127;28;19917;-86
2021/12/30 09:30:26;;;;;;;;;;;17.00;96.00;;;;;;4982271;28;20447;-86
2021/12/30 09:32:54;;;;;;;;;;;17.00;96.00;;;;;;4981467;28;20275;-86
2021/12/30 09:35:21;;;;;;;;;;;17.00;96.40;;;;;;4981972;28;19929;-86
2021/12/30 09:37:48;;;;;;;;;;;17.10;96.10;;;;;;4991765;28;20365;-85
2021/12/30 09:40:16;;;;;;;;;;;17.00;96.20;;;;;;4977075;28;19913;-86
2021/12/30 09:42:46;;;;;;;;;;;17.10;96.20;;;;;;4991998;28;19917;-85
2021/12/30 09:45:14;;;;;;;;;;;17.00;95.90;;;;;;4987254;28;20442;-86
2021/12/30 09:47:46;;;;;;;;;;;17.00;95.80;;;;;;4980067;28;20302;-86
2021/12/30 09:50:14;;;;;;;;;;;17.10;95.90;;;;;;4986257;28;19914;-85
2021/12/30 09:52:40;;;;;;;;;;;17.00;95.70;;;;;;4974505;28;19917;-86
2021/12/30 09:55:08;;;;;;;;;;;17.00;95.70;;;;;;4976444;28;19943;-86
2021/12/30 09:57:36;;;;;;;;;;;17.10;96.30;;;;;;4995325;28;20128;-86
2021/12/30 10:00:05;;;;;;;;;;;17.00;95.60;;;;;;4993400;28;19918;-86
2021/12/30 10:02:32;;;;;;;;;;;17.00;94.60;;;;;;4965395;28;20018;-85
2021/12/30 10:05:19;;;;;;;;;;;17.00;95.30;;;;;;5002266;28;19920;-85
2021/12/30 10:07:46;;;;;;;;;;;17.10;95.40;;;;;;4982698;28;19918;-85
2021/12/30 10:10:26;;;;;;;;;;;17.10;95.60;;;;;;4980159;28;19920;-90
2021/12/30 10:12:53;;;;;;;;;;;17.10;96.30;;;;;;4994782;28;19922;-86
2021/12/30 10:15:24;;;;;;;;;;;17.20;95.80;;;;;;4993151;28;20134;-86
2021/12/30 10:17:55;;;;;;;;;;;17.20;95.90;;;;;;4991406;28;19913;-85
2021/12/30 10:20:27;;;;;;;;;;;17.30;95.80;;;;;;4978952;28;20516;-85
2021/12/30 10:22:55;;;;;;;;;;;17.30;95.70;;;;;;4983832;28;20294;-86
2021/12/30 10:25:32;;;;;;;;;;;17.40;95.70;;;;;;4970548;28;19924;-86
2021/12/30 10:28:18;;;;;;;;;;;17.40;95.90;;;;;;4997662;28;19921;-85
2021/12/30 10:30:45;;;;;;;;;;;17.40;94.80;;;;;;4970193;28;19920;-86
2021/12/30 10:33:14;;;;;;;;;;;17.40;95.20;;;;;;4963161;28;19913;-85
2021/12/30 10:35:40;;;;;;;;;;;17.40;95.60;;;;;;4994334;28;19956;-86
2021/12/30 10:38:11;;;;;;;;;;;17.50;95.80;;;;;;4981312;28;19940;-87
2021/12/30 10:40:40;;;;;;;;;;;17.50;95.30;;;;;;4975888;28;19914;-85
2021/12/30 10:46:09;;;;;;;;;;;17.50;95.20;;;;;;4984980;28;19928;-85
2021/12/30 10:48:54;;;;;;;;;;;17.50;94.90;;;;;;4971696;28;20570;-87
2021/12/30 10:51:24;;;;;;;;;;;17.50;95.00;;;;;;4986322;28;19947;-86
2021/12/30 10:53:53;;;;;;;;;;;17.50;95.30;;;;;;4972056;28;19928;-87
2021/12/30 10:56:27;;;;;;;;;;;17.50;95.20;;;;;;4983459;28;19932;-88
2021/12/30 10:58:54;;;;;;;;;;;17.50;95.00;;;;;;4996923;28;20412;-85
2021/12/30 11:01:24;;;;;;;;;;;17.50;95.30;;;;;;4992309;28;19914;-85
2021/12/30 11:03:58;;;;;;;;;;;17.50;95.60;;;;;;5000332;28;19921;-86
2021/12/30 11:06:25;;;;;;;;;;;17.40;95.20;;;;;;4986358;28;20104;-85
2021/12/30 11:09:12;;;;;;;;;;;17.40;94.60;;;;;;4974743;28;20286;-85
2021/12/30 11:11:40;;;;;;;;;;;17.40;95.40;;;;;;4995849;28;20554;-86
2021/12/30 11:14:07;;;;;;;;;;;17.40;94.70;;;;;;4980677;28;19914;-85
2021/12/30 11:16:50;;;;;;;;;;;17.50;94.90;;;;;;4998568;28;19951;-86
2021/12/30 11:19:17;;;;;;;;;;;17.50;95.50;;;;;;5006613;28;20323;-85
2021/12/30 11:21:47;;;;;;;;;;;17.50;94.90;;;;;;4984955;28;19914;-86
2021/12/30 11:24:14;;;;;;;;;;;17.60;95.70;;;;;;4990698;28;20395;-88
2021/12/30 11:26:41;;;;;;;;;;;17.80;95.10;;;;;;4999420;28;20278;-88
2021/12/30 11:29:08;;;;;;;;;;;18.00;95.10;;;;;;4985927;28;20309;-86
2021/12/30 11:31:35;;;;;;;;;;;18.20;95.80;;;;;;4981592;28;20496;-89
2021/12/30 11:34:02;;;;;;;;;;;18.30;94.40;;;;;;4982876;28;19922;-89
2021/12/30 11:36:29;;;;;;;;;;;18.30;94.40;;;;;;4982100;28;20391;-88
2021/12/30 11:39:01;;;;;;;;;;;18.40;94.20;;;;;;5017907;28;20378;-88
2021/12/30 11:41:28;;;;;;;;;;;18.40;93.90;;;;;;4987736;28;19943;-88
2021/12/30 11:43:56;;;;;;;;;;;18.40;94.00;;;;;;4986540;28;19913;-88
2021/12/30 11:46:41;;;;;;;;;;;18.30;92.60;;;;;;4988453;28;20116;-90
2021/12/30 11:49:10;;;;;;;;;;;18.30;93.20;;;;;;4995974;28;19913;-88
2021/12/30 11:51:48;;;;;;;;;;;18.20;93.30;;;;;;4981527;28;19917;-88
2021/12/30 11:54:35;;;;;;;;;;;18.20;93.50;;;;;;4995133;28;19922;-88
2021/12/30 11:57:20;;;;;;;;;;;18.10;92.90;;;;;;4980267;28;20261;-89
2021/12/30 11:59:47;;;;;;;;;;;18.00;94.00;;;;;;5000341;28;20148;-88
2021/12/30 12:02:33;;;;;;;;;;;18.00;93.90;;;;;;4993662;28;20851;-88
2021/12/30 12:05:19;;;;;;;;;;;17.90;93.70;;;;;;4991336;28;19925;-88
2021/12/30 12:08:01;;;;;;;;;;;17.90;93.50;;;;;;4984547;28;19914;-88
2021/12/30 12:10:28;;;;;;;;;;;17.80;93.90;;;;;;4980330;28;19921;-89
2021/12/30 12:12:55;;;;;;;;;;;17.70;92.30;;;;;;4999935;28;21240;-88
2021/12/30 12:15:22;;;;;;;;;;;17.70;93.30;;;;;;4976089;28;19939;-89
2021/12/30 12:17:49;;;;;;;;;;;17.70;93.90;;;;;;4997381;28;19913;-88
2021/12/30 12:20:30;;;;;;;;;;;17.70;94.60;;;;;;4991612;28;19914;-88
2021/12/30 12:22:56;;;;;;;;;;;17.70;94.70;;;;;;4983389;28;19914;-88
2021/12/30 12:25:27;;;;;;;;;;;17.70;95.00;;;;;;4968608;28;21590;-88
2021/12/30 12:27:55;;;;;;;;;;;17.70;95.10;;;;;;4983476;28;19925;-88
2021/12/30 12:30:22;;;;;;;;;;;17.70;95.30;;;;;;4982026;28;19928;-88
2021/12/30 12:32:49;;;;;;;;;;;17.80;94.60;;;;;;4982018;28;19922;-88
2021/12/30 12:35:16;;;;;;;;;;;17.90;94.00;;;;;;4995334;28;19933;-88
2021/12/30 12:37:44;;;;;;;;;;;17.90;94.30;;;;;;4989179;28;20387;-88
2021/12/30 12:40:20;;;;;;;;;;;18.00;94.60;;;;;;4978996;28;19921;-88
2021/12/30 12:42:50;;;;;;;;;;;18.10;95.00;;;;;;5001451;28;19914;-88
2021/12/30 12:45:17;;;;;;;;;;;18.20;94.90;;;;;;4967991;28;19914;-88
2021/12/30 12:47:45;;;;;;;;;;;18.20;94.30;;;;;;4999379;28;20481;-88
2021/12/30 12:50:13;;;;;;;;;;;18.20;94.50;;;;;;4996612;28;20442;-89
2021/12/30 12:52:41;;;;;;;;;;;18.20;93.90;;;;;;4980980;28;19922;-88
2021/12/30 12:55:11;;;;;;;;;;;18.20;94.30;;;;;;4954296;28;19922;-88
2021/12/30 12:57:41;;;;;;;;;;;18.20;94.60;;;;;;4986018;28;20318;-88
2021/12/30 13:00:09;;;;;;;;;;;18.20;95.10;;;;;;4974092;28;20365;-88
2021/12/30 13:02:36;;;;;;;;;;;18.30;95.10;;;;;;5009043;28;19940;-88
2021/12/30 13:05:12;;;;;;;;;;;18.30;94.20;;;;;;4993396;28;20306;-88
2021/12/30 13:07:39;;;;;;;;;;;18.20;94.60;;;;;;4980654;28;22700;-88
2021/12/30 13:10:06;;;;;;;;;;;18.20;94.20;;;;;;4977758;28;19914;-88
2021/12/30 13:12:35;;;;;;;;;;;18.20;93.50;;;;;;4978089;28;19944;-88
2021/12/30 13:15:08;;;;;;;;;;;18.20;94.30;;;;;;4987760;28;19913;-87
2021/12/30 13:17:35;;;;;;;;;;;18.10;93.50;;;;;;4979638;28;20488;-87
2021/12/30 13:20:02;;;;;;;;;;;18.10;93.10;;;;;;4961635;28;19921;-89
2021/12/30 13:22:29;;;;;;;;;;;18.10;93.40;;;;;;4988231;28;19917;-87
2021/12/30 13:25:00;;;;;;;;;;;18.10;94.10;;;;;;4987138;28;19927;-88
2021/12/30 13:27:41;;;;;;;;;;;18.10;94.60;;;;;;4970159;28;20103;-88
2021/12/30 13:30:08;;;;;;;;;;;18.00;94.00;;;;;;4998980;28;19913;-88
2021/12/30 13:32:36;;;;;;;;;;;18.00;93.70;;;;;;5006391;28;20430;-87
2021/12/30 13:35:11;;;;;;;;;;;18.00;94.40;;;;;;4982233;28;19928;-88
2021/12/30 13:37:40;;;;;;;;;;;17.90;94.60;;;;;;4980274;28;19928;-88
2021/12/30 13:40:22;;;;;;;;;;;17.90;94.00;;;;;;4994225;28;19922;-88
2021/12/30 13:42:50;;;;;;;;;;;17.90;93.70;;;;;;5001638;28;19929;-88
2021/12/30 13:45:23;;;;;;;;;;;17.80;93.80;;;;;;4981173;28;19913;-88
2021/12/30 13:47:50;;;;;;;;;;;17.80;94.00;;;;;;4964892;28;19921;-87
2021/12/30 13:50:17;;;;;;;;;;;17.70;94.30;;;;;;4980450;28;19914;-89
2021/12/30 13:52:45;;;;;;;;;;;17.70;94.10;;;;;;4980672;28;20103;-88
2021/12/30 13:55:12;;;;;;;;;;;17.60;94.30;;;;;;4967187;28;20015;-88
2021/12/30 13:57:39;;;;;;;;;;;17.60;94.30;;;;;;4972854;28;19932;-88
2021/12/30 14:00:08;;;;;;;;;;;17.50;94.70;;;;;;4981338;28;20337;-89
2021/12/30 14:02:35;;;;;;;;;;;17.50;94.60;;;;;;4975517;28;19920;-88
2021/12/30 14:05:22;;;;;;;;;;;17.40;94.80;;;;;;4978537;28;19917;-88
2021/12/30 14:07:49;;;;;;;;;;;17.40;94.50;;;;;;4993593;28;19913;-88
2021/12/30 14:10:16;;;;;;;;;;;17.30;94.70;;;;;;4977841;28;20199;-87
2021/12/30 14:12:58;;;;;;;;;;;17.30;94.50;;;;;;5013745;28;19914;-88
2021/12/30 14:15:24;;;;;;;;;;;17.20;94.50;;;;;;4975371;28;19917;-87
2021/12/30 14:17:59;;;;;;;;;;;17.20;94.60;;;;;;4988513;28;19918;-88
2021/12/30 14:20:26;;;;;;;;;;;17.10;94.80;;;;;;4977337;28;20359;-89
2021/12/30 14:22:53;;;;;;;;;;;17.00;95.00;;;;;;4999021;28;19920;-88
2021/12/30 14:25:24;;;;;;;;;;;17.00;94.70;;;;;;4987988;28;20109;-88
2021/12/30 14:27:51;;;;;;;;;;;16.90;94.40;;;;;;4991957;28;19924;-88